Time;durP1;ratioP1;P1;durP2;ratioP2;P2;SDS_P1;SDS_P2;PMS_P1;PMS_P2;Temp;Humidity;BMP_temperature;BMP_pressure;BME280_temperature;BME280_humidity;BME280_pressure;Samples;Min_cycle;Max_cycle;Signal;HPM_P1;HPM_P2
2022/12/04 00:00:36;;;;;;;;;;;;;;;-0.63;100.00;101713.41;5032821;28;20284;-60
2022/12/04 00:03:01;;;;;;;;;;;;;;;-0.65;100.00;101712.78;5033161;28;19913;-60
2022/12/04 00:05:26;;;;;;;;;;;;;;;-0.67;100.00;101708.63;5033645;28;19964;-59
2022/12/04 00:07:52;;;;;;;;;;;;;;;-0.70;100.00;101706.31;5033328;28;20391;-62
2022/12/04 00:10:17;;;;;;;;;;;;;;;-0.74;100.00;101707.75;5033082;28;19921;-60
2022/12/04 00:12:42;;;;;;;;;;;;;;;-0.74;100.00;101707.75;5032736;28;19917;-59
2022/12/04 00:15:08;;;;;;;;;;;;;;;-0.80;100.00;101695.84;5032463;28;19952;-59
2022/12/04 00:17:33;;;;;;;;;;;;;;;-0.79;100.00;101692.94;5032472;28;19916;-59
2022/12/04 00:19:58;;;;;;;;;;;;;;;-0.77;100.00;101700.88;5032292;28;20230;-59
2022/12/04 00:22:24;;;;;;;;;;;;;;;-0.75;100.00;101693.34;5032549;28;20003;-59
2022/12/04 00:24:49;;;;;;;;;;;;;;;-0.77;100.00;101691.88;5032602;28;19917;-60
2022/12/04 00:27:14;;;;;;;;;;;;;;;-0.79;100.00;101690.22;5032583;28;20054;-60
2022/12/04 00:29:39;;;;;;;;;;;;;;;-0.76;100.00;101688.94;5031002;28;20000;-59
2022/12/04 00:32:04;;;;;;;;;;;;;;;-0.75;100.00;101689.78;5030174;28;19917;-62
2022/12/04 00:34:30;;;;;;;;;;;;;;;-0.76;100.00;101691.66;5032293;28;20364;-59
2022/12/04 00:36:55;;;;;;;;;;;;;;;-0.76;100.00;101694.38;5032205;28;20260;-59
2022/12/04 00:39:20;;;;;;;;;;;;;;;-0.73;100.00;101693.97;5031613;28;20026;-59
2022/12/04 00:41:45;;;;;;;;;;;;;;;-0.75;100.00;101687.06;5032359;28;19939;-59
2022/12/04 00:44:10;;;;;;;;;;;;;;;-0.74;100.00;101695.03;5031887;28;19928;-59
2022/12/04 00:46:35;;;;;;;;;;;;;;;-0.74;100.00;101678.72;5032232;28;20007;-60
2022/12/04 00:49:01;;;;;;;;;;;;;;;-0.70;100.00;101681.84;5032344;28;19913;-60
2022/12/04 00:51:27;;;;;;;;;;;;;;;-0.73;100.00;101679.53;5032441;28;19923;-59
2022/12/04 00:53:52;;;;;;;;;;;;;;;-0.74;100.00;101683.28;5032548;28;20002;-59
2022/12/04 00:56:20;;;;;;;;;;;;;;;-0.73;100.00;101682.25;5032223;28;20063;-59
2022/12/04 00:58:45;;;;;;;;;;;;;;;-0.76;100.00;101685.41;5031336;28;20347;-59
2022/12/04 01:01:15;;;;;;;;;;;;;;;-0.76;100.00;101688.13;5013723;28;19979;-58
2022/12/04 01:03:40;;;;;;;;;;;;;;;-0.75;100.00;101685.19;5031440;28;19956;-60
2022/12/04 01:06:06;;;;;;;;;;;;;;;-0.75;100.00;101681.63;5031563;28;19955;-59
2022/12/04 01:08:31;;;;;;;;;;;;;;;-0.77;100.00;101684.56;5031628;28;20265;-60
2022/12/04 01:10:57;;;;;;;;;;;;;;;-0.74;100.00;101691.44;5031715;28;20016;-60
2022/12/04 01:13:23;;;;;;;;;;;;;;;-0.73;100.00;101691.25;5031597;28;19920;-62
2022/12/04 01:15:48;;;;;;;;;;;;;;;-0.73;100.00;101696.69;5031694;28;19920;-59
2022/12/04 01:18:13;;;;;;;;;;;;;;;-0.77;100.00;101692.72;5031610;28;19923;-58
2022/12/04 01:20:39;;;;;;;;;;;;;;;-0.80;100.00;101693.97;5031265;28;19916;-59
2022/12/04 01:23:04;;;;;;;;;;;;;;;-0.74;100.00;101688.72;5031428;28;19917;-59
2022/12/04 01:25:29;;;;;;;;;;;;;;;-0.73;100.00;101691.25;5031487;28;19986;-60
2022/12/04 01:27:54;;;;;;;;;;;;;;;-0.73;100.00;101702.13;5029072;28;20329;-60
2022/12/04 01:30:20;;;;;;;;;;;;;;;-0.74;100.00;101696.88;5031108;28;19921;-60
2022/12/04 01:32:45;;;;;;;;;;;;;;;-0.74;100.00;101697.72;5031093;28;20333;-60
2022/12/04 01:35:10;;;;;;;;;;;;;;;-0.76;100.00;101697.09;5030969;28;19951;-59
2022/12/04 01:37:35;;;;;;;;;;;;;;;-0.71;100.00;101699.19;5030940;28;20024;-61
2022/12/04 01:40:00;;;;;;;;;;;;;;;-0.74;100.00;101703.16;5031294;28;20284;-60
2022/12/04 01:42:26;;;;;;;;;;;;;;;-0.71;100.00;101700.00;5030919;28;20198;-59
2022/12/04 01:45:10;;;;;;;;;;;;;;;-0.67;100.00;101697.75;5029087;28;20213;-60
2022/12/04 01:47:35;;;;;;;;;;;;;;;-0.65;100.00;101690.19;5030604;28;19943;-61
2022/12/04 01:50:00;;;;;;;;;;;;;;;-0.74;100.00;101689.59;5030624;28;19917;-61
2022/12/04 01:52:26;;;;;;;;;;;;;;;-0.70;100.00;101688.09;5030496;28;20391;-61
2022/12/04 01:54:56;;;;;;;;;;;;;;;-0.70;100.00;101685.38;5030462;28;19963;-60
2022/12/04 01:57:23;;;;;;;;;;;;;;;-0.65;100.00;101684.75;5030325;28;20007;-61
2022/12/04 01:59:53;;;;;;;;;;;;;;;-0.71;100.00;101682.88;5029809;28;20043;-61
2022/12/04 02:02:22;;;;;;;;;;;;;;;-0.69;100.00;101672.66;5030369;28;19965;-60
2022/12/04 02:04:47;;;;;;;;;;;;;;;-0.76;100.00;101680.81;5030542;28;19913;-60
2022/12/04 02:07:12;;;;;;;;;;;;;;;-0.79;100.00;101671.19;5030345;28;20359;-60
2022/12/04 02:09:39;;;;;;;;;;;;;;;-0.76;100.00;101682.69;5030203;28;19928;-61
2022/12/04 02:12:16;;;;;;;;;;;;;;;-0.77;100.00;101686.47;5030346;28;19920;-61
2022/12/04 02:14:41;;;;;;;;;;;;;;;-0.75;100.00;101687.91;5030212;28;19920;-60
2022/12/04 02:17:21;;;;;;;;;;;;;;;-0.77;100.00;101681.03;5030032;28;19975;-60
2022/12/04 02:19:59;;;;;;;;;;;;;;;-0.75;100.00;101687.06;5030385;28;19940;-60
2022/12/04 02:22:30;;;;;;;;;;;;;;;-0.76;100.00;101680.81;5030323;28;19924;-61
2022/12/04 02:24:58;;;;;;;;;;;;;;;-0.74;100.00;101686.88;5028319;28;19920;-61
2022/12/04 02:27:33;;;;;;;;;;;;;;;-0.74;100.00;101675.16;5030077;28;19923;-61
2022/12/04 02:30:02;;;;;;;;;;;;;;;-0.73;100.00;101677.69;5030256;28;19935;-61
2022/12/04 02:32:37;;;;;;;;;;;;;;;-0.73;100.00;101684.97;5030373;28;19916;-60
2022/12/04 02:35:07;;;;;;;;;;;;;;;-0.71;100.00;101675.56;5030964;28;19917;-61
2022/12/04 02:37:34;;;;;;;;;;;;;;;-0.72;100.00;101675.78;5031291;28;20359;-60
2022/12/04 02:40:12;;;;;;;;;;;;;;;-0.79;100.00;101681.22;5030817;28;19960;-60
2022/12/04 02:42:39;;;;;;;;;;;;;;;-0.75;100.00;101677.03;5030501;28;19916;-60
2022/12/04 02:45:07;;;;;;;;;;;;;;;-0.73;100.00;101679.53;5030672;28;19916;-60
2022/12/04 02:47:35;;;;;;;;;;;;;;;-0.74;100.00;101673.28;5030429;28;19917;-60
2022/12/04 02:50:02;;;;;;;;;;;;;;;-0.75;100.00;101677.03;5030322;28;19923;-60
2022/12/04 02:52:33;;;;;;;;;;;;;;;-0.78;100.00;101677.44;5030238;28;20564;-60
2022/12/04 02:55:02;;;;;;;;;;;;;;;-0.75;100.00;101670.75;5030843;28;19933;-60
2022/12/04 02:57:31;;;;;;;;;;;;;;;-0.74;100.00;101656.97;5031026;28;19952;-60
2022/12/04 02:59:58;;;;;;;;;;;;;;;-0.75;100.00;101660.75;5030798;28;19917;-60
2022/12/04 03:02:23;;;;;;;;;;;;;;;-0.72;100.00;101656.75;5030026;28;19919;-60
2022/12/04 03:04:49;;;;;;;;;;;;;;;-0.73;100.00;101653.22;5030056;28;20130;-60
2022/12/04 03:07:22;;;;;;;;;;;;;;;-0.73;100.00;101657.81;5029893;28;19913;-60
2022/12/04 03:09:50;;;;;;;;;;;;;;;-0.73;100.00;101652.38;5029004;28;19959;-59
2022/12/04 03:12:18;;;;;;;;;;;;;;;-0.69;100.00;101657.16;5031737;28;19917;-60
2022/12/04 03:14:49;;;;;;;;;;;;;;;-0.76;100.00;101653.63;5034417;28;19913;-60
2022/12/04 03:17:27;;;;;;;;;;;;;;;-0.81;100.00;101664.31;5033684;28;19913;-61
2022/12/04 03:19:55;;;;;;;;;;;;;;;-0.76;100.00;101655.53;5032481;28;20444;-61
2022/12/04 03:22:23;;;;;;;;;;;;;;;-0.80;100.00;101653.22;5033822;28;19917;-61
2022/12/04 03:24:50;;;;;;;;;;;;;;;-0.78;100.00;101650.28;5034386;28;19971;-59
2022/12/04 03:27:21;;;;;;;;;;;;;;;-0.75;100.00;101657.16;5033587;28;19974;-60
2022/12/04 03:29:56;;;;;;;;;;;;;;;-0.73;100.00;101655.94;5032120;28;19920;-60
2022/12/04 03:32:24;;;;;;;;;;;;;;;-0.72;100.00;101659.47;5033656;28;19913;-60
2022/12/04 03:34:52;;;;;;;;;;;;;;;-0.71;100.00;101661.16;5034178;28;19967;-60
2022/12/04 03:37:18;;;;;;;;;;;;;;;-0.71;100.00;101653.00;5034119;28;19913;-61
2022/12/04 03:40:02;;;;;;;;;;;;;;;-0.70;100.00;101654.66;5034025;28;19970;-60
2022/12/04 03:42:36;;;;;;;;;;;;;;;-0.74;100.00;101656.97;5034281;28;20003;-59
2022/12/04 03:45:03;;;;;;;;;;;;;;;-0.75;100.00;101649.88;5033913;28;19960;-60
2022/12/04 03:47:37;;;;;;;;;;;;;;;-0.72;100.00;101649.47;5033695;28;20590;-60
2022/12/04 03:50:13;;;;;;;;;;;;;;;-0.71;100.00;101644.84;5033796;28;20022;-61
2022/12/04 03:52:38;;;;;;;;;;;;;;;-0.74;100.00;101642.53;5033287;28;20438;-61
2022/12/04 03:55:07;;;;;;;;;;;;;;;-0.71;100.00;101639.41;5033834;28;20344;-60
2022/12/04 03:57:36;;;;;;;;;;;;;;;-0.71;100.00;101640.22;5033948;28;19920;-60
2022/12/04 04:00:04;;;;;;;;;;;;;;;-0.68;100.00;101639.00;5033415;28;20245;-60
2022/12/04 04:02:33;;;;;;;;;;;;;;;-0.68;100.00;101649.88;5033277;28;19923;-60
2022/12/04 04:04:59;;;;;;;;;;;;;;;-0.69;100.00;101642.75;5033068;28;19956;-61
2022/12/04 04:07:28;;;;;;;;;;;;;;;-0.73;100.00;101646.94;5032708;28;19916;-60
2022/12/04 04:09:57;;;;;;;;;;;;;;;-0.73;100.00;101642.34;5032893;28;19945;-61
2022/12/04 04:12:24;;;;;;;;;;;;;;;-0.72;100.00;101640.44;5032633;28;19999;-60
2022/12/04 04:26:06;;;;;;;;;;;;;;;-0.69;100.00;101648.19;5032453;28;19940;-59
2022/12/04 04:28:36;;;;;;;;;;;;;;;-0.74;100.00;101650.69;5032317;28;20054;-60
2022/12/04 04:31:10;;;;;;;;;;;;;;;-0.76;100.00;101645.47;5031957;28;19920;-61
2022/12/04 04:33:42;;;;;;;;;;;;;;;-0.76;100.00;101642.75;5032079;28;20687;-59
2022/12/04 04:36:17;;;;;;;;;;;;;;;-0.75;100.00;101643.59;5032261;28;19945;-60
2022/12/04 04:38:44;;;;;;;;;;;;;;;-0.71;100.00;101642.13;5031842;28;20603;-60
2022/12/04 04:41:18;;;;;;;;;;;;;;;-0.74;100.00;101635.25;5029664;28;19916;-61
2022/12/04 04:43:50;;;;;;;;;;;;;;;-0.71;100.00;101645.66;5031816;28;20355;-60
2022/12/04 04:46:22;;;;;;;;;;;;;;;-0.71;100.00;101642.94;5031735;28;20331;-61
2022/12/04 04:48:49;;;;;;;;;;;;;;;-0.66;100.00;101636.91;5031260;28;19987;-60
2022/12/04 04:51:16;;;;;;;;;;;;;;;-0.68;100.00;101644.44;5031662;28;19920;-60
2022/12/04 04:53:44;;;;;;;;;;;;;;;-0.68;100.00;101650.69;5032069;28;20269;-61
2022/12/04 04:56:09;;;;;;;;;;;;;;;-0.70;100.00;101644.63;5031650;28;19975;-60
2022/12/04 04:58:34;;;;;;;;;;;;;;;-0.67;100.00;101649.66;5031862;28;19920;-61
2022/12/04 05:01:10;;;;;;;;;;;;;;;-0.65;100.00;101644.84;5032054;28;20423;-61
2022/12/04 05:03:35;;;;;;;;;;;;;;;-0.62;100.00;101646.28;5032324;28;19921;-60
2022/12/04 05:06:01;;;;;;;;;;;;;;;-0.65;100.00;101647.56;5032078;28;19913;-59
2022/12/04 05:08:26;;;;;;;;;;;;;;;-0.65;100.00;101639.41;5032293;28;19924;-61
2022/12/04 05:10:51;;;;;;;;;;;;;;;-0.66;100.00;101636.91;5030898;28;20400;-62
2022/12/04 05:13:17;;;;;;;;;;;;;;;-0.53;100.00;101652.34;5028768;28;20391;-60
2022/12/04 05:15:42;;;;;;;;;;;;;;;-0.62;100.00;101646.28;5031531;28;20237;-60
2022/12/04 05:18:08;;;;;;;;;;;;;;;-0.60;100.00;101651.50;5031355;28;19924;-61
2022/12/04 05:20:36;;;;;;;;;;;;;;;-0.62;100.00;101643.56;5030829;28;20660;-60
2022/12/04 05:23:02;;;;;;;;;;;;;;;-0.60;100.00;101651.50;5030919;28;19913;-61
2022/12/04 05:25:27;;;;;;;;;;;;;;;-0.62;100.00;101651.72;5030899;28;19920;-61
2022/12/04 05:27:52;;;;;;;;;;;;;;;-0.62;100.00;101649.00;5030865;28;19924;-60
2022/12/04 05:30:17;;;;;;;;;;;;;;;-0.59;100.00;101655.91;5030726;28;20325;-61
2022/12/04 05:32:42;;;;;;;;;;;;;;;-0.60;100.00;101652.34;5030548;28;19913;-61
2022/12/04 05:35:08;;;;;;;;;;;;;;;-0.61;100.00;101644.44;5030148;28;20726;-61
2022/12/04 05:37:37;;;;;;;;;;;;;;;-0.60;100.00;101651.50;5030971;28;20003;-61
2022/12/04 05:40:02;;;;;;;;;;;;;;;-0.57;100.00;101651.94;5031073;28;20024;-60
2022/12/04 05:42:28;;;;;;;;;;;;;;;-0.56;100.00;101650.88;5031093;28;19996;-61
2022/12/04 05:44:53;;;;;;;;;;;;;;;-0.55;100.00;101646.28;5030711;28;20426;-60
2022/12/04 05:47:18;;;;;;;;;;;;;;;-0.59;100.00;101645.03;5030752;28;20059;-61
2022/12/04 05:49:43;;;;;;;;;;;;;;;-0.59;100.00;101645.03;5030709;28;19913;-60
2022/12/04 05:52:09;;;;;;;;;;;;;;;-0.61;100.00;101639.00;5030493;28;20034;-61
2022/12/04 05:54:35;;;;;;;;;;;;;;;-0.61;100.00;101642.53;5030637;28;19917;-60
2022/12/04 05:57:00;;;;;;;;;;;;;;;-0.57;100.00;101635.63;5030841;28;20360;-61
2022/12/04 05:59:26;;;;;;;;;;;;;;;-0.61;100.00;101642.53;5030757;28;20001;-60
2022/12/04 06:01:51;;;;;;;;;;;;;;;-0.56;100.00;101640.00;5030615;28;19933;-60
2022/12/04 06:04:16;;;;;;;;;;;;;;;-0.64;100.00;101637.50;5031023;28;19928;-61
2022/12/04 06:06:41;;;;;;;;;;;;;;;-0.64;100.00;101629.34;5031064;28;19917;-61
2022/12/04 06:09:07;;;;;;;;;;;;;;;-0.65;100.00;101623.09;5027096;28;20237;-61
2022/12/04 06:11:33;;;;;;;;;;;;;;;-0.62;100.00;101629.97;5030750;28;19917;-60
2022/12/04 06:13:59;;;;;;;;;;;;;;;-0.60;100.00;101624.31;5030598;28;19913;-61
2022/12/04 06:16:26;;;;;;;;;;;;;;;-0.65;100.00;101625.81;5030964;28;19959;-60
2022/12/04 06:18:53;;;;;;;;;;;;;;;-0.59;100.00;101626.00;5030728;28;20565;-60
2022/12/04 06:21:19;;;;;;;;;;;;;;;-0.63;100.00;101634.59;5030612;28;19917;-61
2022/12/04 06:23:45;;;;;;;;;;;;;;;-0.63;100.00;101634.59;5030654;28;19920;-60
2022/12/04 06:26:10;;;;;;;;;;;;;;;-0.63;100.00;101631.03;5030324;28;19917;-61
2022/12/04 06:28:36;;;;;;;;;;;;;;;-0.65;100.00;101624.97;5030087;28;19923;-60
2022/12/04 06:31:02;;;;;;;;;;;;;;;-0.64;100.00;101632.94;5030155;28;20395;-61
2022/12/04 06:33:27;;;;;;;;;;;;;;;-0.58;100.00;101628.53;5030100;28;20368;-61
2022/12/04 06:35:59;;;;;;;;;;;;;;;-0.61;100.00;101633.56;5030040;28;19928;-61
2022/12/04 06:38:25;;;;;;;;;;;;;;;-0.59;100.00;101634.16;5030220;28;19939;-61
2022/12/04 06:40:50;;;;;;;;;;;;;;;-0.64;100.00;101635.66;5031343;28;20448;-60
2022/12/04 06:43:15;;;;;;;;;;;;;;;-0.61;100.00;101639.81;5031019;28;20172;-60
2022/12/04 06:45:41;;;;;;;;;;;;;;;-0.60;100.00;101636.06;5030913;28;19924;-61
2022/12/04 06:48:06;;;;;;;;;;;;;;;-0.56;100.00;101639.19;5034444;28;19956;-62
2022/12/04 06:50:31;;;;;;;;;;;;;;;-0.56;100.00;101634.56;5035547;28;19935;-61
2022/12/04 06:52:56;;;;;;;;;;;;;;;-0.58;100.00;101639.41;5035055;28;19927;-61
2022/12/04 06:55:22;;;;;;;;;;;;;;;-0.58;100.00;101644.84;5034880;28;20217;-61
2022/12/04 06:57:47;;;;;;;;;;;;;;;-0.54;100.00;101648.78;5016873;28;19917;-61
2022/12/04 07:00:12;;;;;;;;;;;;;;;-0.54;100.00;101651.50;5034823;28;20327;-61
2022/12/04 07:02:37;;;;;;;;;;;;;;;-0.61;100.00;101639.81;5033972;28;19917;-62
2022/12/04 07:05:03;;;;;;;;;;;;;;;-0.60;100.00;101638.78;5032671;28;19939;-58
2022/12/04 07:07:28;;;;;;;;;;;;;;;-0.57;100.00;101651.94;5034135;28;20275;-61
2022/12/04 07:09:53;;;;;;;;;;;;;;;-0.57;100.00;101653.81;5034131;28;19913;-60
2022/12/04 07:12:18;;;;;;;;;;;;;;;-0.60;100.00;101652.34;5034150;28;19913;-61
2022/12/04 07:14:44;;;;;;;;;;;;;;;-0.58;100.00;101657.56;5034472;28;19920;-61
2022/12/04 07:17:09;;;;;;;;;;;;;;;-0.58;100.00;101661.16;5034277;28;19913;-58
2022/12/04 07:19:35;;;;;;;;;;;;;;;-0.57;100.00;101659.25;5034673;28;20497;-59
2022/12/04 07:22:00;;;;;;;;;;;;;;;-0.52;100.00;101665.72;5034099;28;20310;-61
2022/12/04 07:24:25;;;;;;;;;;;;;;;-0.50;100.00;101669.06;5034030;28;19921;-60
2022/12/04 07:26:51;;;;;;;;;;;;;;;-0.52;100.00;101664.91;5033897;28;20055;-60
2022/12/04 07:29:16;;;;;;;;;;;;;;;-0.58;100.00;101679.31;5032388;28;20016;-61
2022/12/04 07:31:43;;;;;;;;;;;;;;;-0.56;100.00;101677.22;5033551;28;20063;-60
2022/12/04 07:34:08;;;;;;;;;;;;;;;-0.57;100.00;101670.97;5033408;28;19920;-60
2022/12/04 07:36:33;;;;;;;;;;;;;;;-0.55;100.00;101673.47;5033387;28;19917;-61
2022/12/04 07:38:58;;;;;;;;;;;;;;;-0.53;100.00;101671.38;5033030;28;19917;-61
2022/12/04 07:41:23;;;;;;;;;;;;;;;-0.53;100.00;101671.38;5032928;28;19925;-60
2022/12/04 07:43:49;;;;;;;;;;;;;;;-0.48;100.00;101672.41;5031544;28;19916;-62
2022/12/04 07:46:15;;;;;;;;;;;;;;;-0.50;100.00;101671.78;5033086;28;19917;-61
2022/12/04 07:48:41;;;;;;;;;;;;;;;-0.48;100.00;101666.13;5032671;28;19944;-60
2022/12/04 07:51:10;;;;;;;;;;;;;;;-0.49;100.00;101667.19;5032079;28;20010;-61
2022/12/04 07:53:36;;;;;;;;;;;;;;;-0.48;100.00;101675.13;5032177;28;19959;-60
2022/12/04 07:56:02;;;;;;;;;;;;;;;-0.48;100.00;101680.56;5032586;28;19956;-61
2022/12/04 07:58:27;;;;;;;;;;;;;;;-0.42;100.00;101686.19;5029713;28;20011;-61
2022/12/04 08:00:52;;;;;;;;;;;;;;;-0.44;100.00;101677.41;5033356;28;20007;-61
2022/12/04 08:03:18;;;;;;;;;;;;;;;-0.44;100.00;101680.13;5033703;28;19997;-60
2022/12/04 08:05:43;;;;;;;;;;;;;;;-0.47;100.00;101684.94;5033320;28;19957;-61
2022/12/04 08:08:08;;;;;;;;;;;;;;;-0.39;100.00;101691.22;5048523;28;19913;-61
2022/12/04 08:10:33;;;;;;;;;;;;;;;-0.39;100.00;101689.31;5032978;28;19924;-60
2022/12/04 08:12:58;;;;;;;;;;;;;;;-0.41;100.00;101688.69;5032813;28;19963;-61
2022/12/04 08:15:24;;;;;;;;;;;;;;;-0.33;100.00;101687.66;5033032;28;19923;-61
2022/12/04 08:17:49;;;;;;;;;;;;;;;-0.38;100.00;101698.34;5032643;28;19917;-61
2022/12/04 08:20:14;;;;;;;;;;;;;;;-0.35;100.00;101697.91;5032755;28;20002;-60
2022/12/04 08:22:39;;;;;;;;;;;;;;;-0.33;100.00;101696.63;5032759;28;19916;-60
2022/12/04 08:25:04;;;;;;;;;;;;;;;-0.28;100.00;101692.44;5032856;28;19917;-61
2022/12/04 08:27:30;;;;;;;;;;;;;;;-0.18;100.00;101701.81;5031293;28;19940;-60
2022/12/04 08:29:55;;;;;;;;;;;;;;;-0.24;100.00;101699.97;5032596;28;19913;-60
2022/12/04 08:32:20;;;;;;;;;;;;;;;-0.25;100.00;101702.91;5032353;28;19921;-61
2022/12/04 08:34:45;;;;;;;;;;;;;;;-0.33;100.00;101693.09;5032258;28;20395;-61
2022/12/04 08:37:10;;;;;;;;;;;;;;;-0.27;100.00;101699.56;5032487;28;19921;-61
2022/12/04 08:39:36;;;;;;;;;;;;;;;-0.29;100.00;101690.78;5031895;28;20356;-62
2022/12/04 08:42:01;;;;;;;;;;;;;;;-0.26;100.00;101687.63;5032360;28;19959;-59
2022/12/04 08:44:26;;;;;;;;;;;;;;;-0.24;100.00;101688.28;5030162;28;19970;-60
2022/12/04 08:46:51;;;;;;;;;;;;;;;-0.19;100.00;101692.00;5030767;28;20284;-60
2022/12/04 08:49:18;;;;;;;;;;;;;;;-0.16;100.00;101686.13;5029699;28;19949;-60
2022/12/04 08:51:43;;;;;;;;;;;;;;;-0.09;100.00;101685.28;5030649;28;19928;-60
2022/12/04 08:54:11;;;;;;;;;;;;;;;-0.11;100.00;101674.63;5027267;28;20797;-61
2022/12/04 08:56:36;;;;;;;;;;;;;;;-0.09;100.00;101682.56;5030399;28;19935;-61
2022/12/04 08:59:02;;;;;;;;;;;;;;;-0.09;100.00;101680.69;5030844;28;19913;-60
2022/12/04 09:01:28;;;;;;;;;;;;;;;-0.05;100.00;101678.38;5030658;28;19936;-60
2022/12/04 09:03:53;;;;;;;;;;;;;;;-0.02;100.00;101677.94;5030489;28;20356;-61
2022/12/04 09:06:19;;;;;;;;;;;;;;;0.05;100.00;101684.19;5031057;28;19917;-60
2022/12/04 09:08:44;;;;;;;;;;;;;;;0.02;100.00;101683.78;5030434;28;19913;-60
2022/12/04 09:11:11;;;;;;;;;;;;;;;0.03;100.00;101685.47;5030876;28;20083;-60
2022/12/04 09:13:37;;;;;;;;;;;;;;;0.11;100.00;101693.38;5013201;28;19917;-60
2022/12/04 09:16:05;;;;;;;;;;;;;;;0.08;100.00;101677.47;5030917;28;20363;-61
2022/12/04 09:18:31;;;;;;;;;;;;;;;0.04;99.71;101682.50;5031476;28;19921;-59
2022/12/04 09:20:57;;;;;;;;;;;;;;;0.09;100.00;101684.59;5029989;28;19917;-60
2022/12/04 09:23:24;;;;;;;;;;;;;;;0.11;100.00;101686.03;5029557;28;19917;-60
2022/12/04 09:25:49;;;;;;;;;;;;;;;0.19;100.00;101695.03;5031055;28;19920;-60
2022/12/04 09:28:14;;;;;;;;;;;;;;;0.21;99.77;101701.06;5029650;28;19917;-60
2022/12/04 09:30:39;;;;;;;;;;;;;;;0.15;99.11;101694.59;5030097;28;19921;-60
2022/12/04 09:33:04;;;;;;;;;;;;;;;0.13;99.31;101694.00;5030252;28;19920;-60
2022/12/04 09:35:30;;;;;;;;;;;;;;;0.10;99.09;101699.88;5030315;28;19971;-62
2022/12/04 09:37:55;;;;;;;;;;;;;;;0.09;98.75;101692.75;5030114;28;20365;-60
2022/12/04 09:40:28;;;;;;;;;;;;;;;0.12;98.82;101695.06;5029997;28;20348;-60
2022/12/04 09:43:19;;;;;;;;;;;;;;;0.06;98.02;101699.47;5030211;28;20063;-60
2022/12/04 09:45:47;;;;;;;;;;;;;;;0.06;98.36;101701.34;5020424;28;20426;-60
2022/12/04 09:48:15;;;;;;;;;;;;;;;0.04;97.64;101693.41;5024079;28;20447;-61
2022/12/04 09:50:41;;;;;;;;;;;;;;;0.02;98.28;101700.13;5027467;28;19917;-59
2022/12/04 09:53:16;;;;;;;;;;;;;;;0.03;98.50;101699.88;5030536;28;19925;-59
2022/12/04 09:55:43;;;;;;;;;;;;;;;0.02;98.16;101694.66;5030018;28;19925;-59
2022/12/04 09:58:19;;;;;;;;;;;;;;;0.08;98.51;101697.38;5029874;28;19963;-59
2022/12/04 10:00:46;;;;;;;;;;;;;;;0.04;98.29;101687.97;5028965;28;20010;-60
2022/12/04 10:03:14;;;;;;;;;;;;;;;0.03;98.59;101694.44;5029974;28;19924;-59
2022/12/04 10:05:39;;;;;;;;;;;;;;;0.10;98.78;101697.97;5028390;28;20386;-61
2022/12/04 10:08:24;;;;;;;;;;;;;;;0.13;98.67;101688.56;5029873;28;19970;-58
2022/12/04 10:10:55;;;;;;;;;;;;;;;0.08;98.16;101694.66;5029946;28;19917;-59
2022/12/04 10:13:26;;;;;;;;;;;;;;;0.21;98.56;101695.63;5029820;28;19913;-60
2022/12/04 10:15:56;;;;;;;;;;;;;;;0.11;98.10;101694.19;5029991;28;19936;-59
2022/12/04 10:18:27;;;;;;;;;;;;;;;0.02;97.73;101698.22;5028750;28;19921;-59
2022/12/04 10:20:59;;;;;;;;;;;;;;;-0.01;98.47;101694.03;5029501;28;20126;-60
2022/12/04 10:23:36;;;;;;;;;;;;;;;0.09;98.31;101693.59;5029812;28;20266;-59
2022/12/04 10:26:02;;;;;;;;;;;;;;;0.09;98.07;101701.78;5030121;28;19921;-59
2022/12/04 10:28:37;;;;;;;;;;;;;;;0.05;97.79;101689.63;5030014;28;19917;-59
2022/12/04 10:31:04;;;;;;;;;;;;;;;0.02;97.67;101692.78;5030025;28;19939;-59
2022/12/04 10:33:42;;;;;;;;;;;;;;;0.09;98.07;101688.16;5030023;28;20412;-59
2022/12/04 10:36:15;;;;;;;;;;;;;;;0.06;97.80;101693.19;5030216;28;19928;-59
2022/12/04 10:38:44;;;;;;;;;;;;;;;0.02;98.55;101687.34;5030182;28;19913;-60
2022/12/04 10:41:32;;;;;;;;;;;;;;;0.02;98.69;101689.22;5028664;28;19917;-59
2022/12/04 10:43:57;;;;;;;;;;;;;;;0.05;98.51;101692.34;5029802;28;20276;-60
2022/12/04 10:46:25;;;;;;;;;;;;;;;0.09;98.79;101690.88;5027464;28;20497;-59
2022/12/04 10:48:52;;;;;;;;;;;;;;;0.10;98.88;101702.59;5029231;28;19952;-59
2022/12/04 10:51:20;;;;;;;;;;;;;;;0.14;99.09;101692.97;5028015;28;19932;-59
2022/12/04 10:53:48;;;;;;;;;;;;;;;0.13;98.57;101691.28;5029861;28;20008;-59
2022/12/04 10:56:16;;;;;;;;;;;;;;;0.13;98.81;101685.84;5029298;28;19949;-59
2022/12/04 10:58:42;;;;;;;;;;;;;;;0.13;98.82;101694.84;5044462;28;20053;-61
2022/12/04 11:01:10;;;;;;;;;;;;;;;0.16;98.93;101693.56;5028708;28;20353;-59
2022/12/04 11:03:35;;;;;;;;;;;;;;;0.21;98.86;101690.19;5028838;28;20683;-60
2022/12/04 11:06:02;;;;;;;;;;;;;;;0.20;98.66;101678.47;5028826;28;19917;-61
2022/12/04 11:08:48;;;;;;;;;;;;;;;0.25;98.36;101675.13;5028425;28;19974;-60
2022/12/04 11:11:15;;;;;;;;;;;;;;;0.13;98.45;101669.53;5028877;28;20045;-59
2022/12/04 11:13:40;;;;;;;;;;;;;;;0.19;98.64;101673.28;5028728;28;19916;-59
2022/12/04 11:16:06;;;;;;;;;;;;;;;0.16;99.18;101669.06;5028831;28;19978;-60
2022/12/04 11:18:34;;;;;;;;;;;;;;;0.13;98.18;101661.34;5028849;28;19974;-59
2022/12/04 11:21:01;;;;;;;;;;;;;;;0.17;98.48;101659.84;5029289;28;19925;-60
2022/12/04 11:23:30;;;;;;;;;;;;;;;0.23;98.51;101666.31;5028780;28;19966;-60
2022/12/04 11:25:57;;;;;;;;;;;;;;;0.25;98.35;101651.44;5028763;28;20320;-60
2022/12/04 11:28:31;;;;;;;;;;;;;;;0.20;97.40;101650.41;5028965;28;19917;-60
2022/12/04 11:30:58;;;;;;;;;;;;;;;0.17;98.27;101657.13;5028732;28;19928;-58
2022/12/04 11:33:35;;;;;;;;;;;;;;;0.22;98.14;101654.63;5031763;28;20225;-59
2022/12/04 11:36:04;;;;;;;;;;;;;;;0.23;98.61;101644.56;5032683;28;20440;-58
2022/12/04 11:38:32;;;;;;;;;;;;;;;0.22;98.56;101654.63;5031858;28;19943;-59
2022/12/04 11:41:05;;;;;;;;;;;;;;;0.18;98.31;101644.38;5028793;28;19928;-60
2022/12/04 11:43:32;;;;;;;;;;;;;;;0.25;98.44;101642.47;5032764;28;19970;-59
2022/12/04 11:46:02;;;;;;;;;;;;;;;0.20;98.42;101639.53;5031014;28;19917;-59
2022/12/04 11:48:28;;;;;;;;;;;;;;;0.23;98.75;101639.97;5031110;28;20019;-59
2022/12/04 11:51:13;;;;;;;;;;;;;;;0.28;98.60;101642.84;5032432;28;20008;-60
2022/12/04 11:53:46;;;;;;;;;;;;;;;0.29;99.19;101640.94;5032632;28;19917;-58
2022/12/04 11:56:30;;;;;;;;;;;;;;;0.26;97.50;101642.22;5032334;28;19913;-59
2022/12/04 11:58:58;;;;;;;;;;;;;;;0.21;98.08;101633.03;5047697;28;19925;-58
2022/12/04 12:01:42;;;;;;;;;;;;;;;0.21;98.73;101620.28;5032272;28;19924;-59
2022/12/04 12:04:26;;;;;;;;;;;;;;;0.22;98.84;101632.84;5047158;28;19924;-58
2022/12/04 12:06:54;;;;;;;;;;;;;;;0.22;98.85;101635.56;5032086;28;19920;-57
2022/12/04 12:09:23;;;;;;;;;;;;;;;0.24;98.79;101635.34;5031986;28;19921;-59
2022/12/04 12:11:57;;;;;;;;;;;;;;;0.34;98.20;101635.69;5030776;28;19924;-60
2022/12/04 12:14:39;;;;;;;;;;;;;;;0.22;97.36;101613.78;5032193;28;19913;-59
2022/12/04 12:17:23;;;;;;;;;;;;;;;0.22;97.85;101619.25;5031609;28;19999;-58
2022/12/04 12:19:54;;;;;;;;;;;;;;;0.27;98.47;101621.31;5031149;28;20387;-59
2022/12/04 12:22:30;;;;;;;;;;;;;;;0.33;98.07;101606.00;5031061;28;19917;-60
2022/12/04 12:25:02;;;;;;;;;;;;;;;0.30;97.99;101615.41;5031717;28;19924;-60
2022/12/04 12:27:44;;;;;;;;;;;;;;;0.32;98.45;101618.75;5031373;28;19913;-59
2022/12/04 12:30:20;;;;;;;;;;;;;;;0.33;98.38;101609.53;5030356;28;19924;-57
2022/12/04 12:32:57;;;;;;;;;;;;;;;0.34;98.36;101602.19;5029137;28;19924;-60
2022/12/04 12:35:32;;;;;;;;;;;;;;;0.39;97.98;101605.09;5031126;28;19917;-60
2022/12/04 12:38:00;;;;;;;;;;;;;;;0.38;98.65;101611.59;5031187;28;20354;-59
2022/12/04 12:40:28;;;;;;;;;;;;;;;0.36;98.12;101614.56;5031505;28;19923;-59
2022/12/04 12:43:00;;;;;;;;;;;;;;;0.28;97.79;101591.13;5030147;28;19939;-59
2022/12/04 12:45:40;;;;;;;;;;;;;;;0.38;98.48;101604.25;5031436;28;20500;-58
2022/12/04 12:48:12;;;;;;;;;;;;;;;0.37;98.15;101604.47;5030729;28;19917;-59